Time;durP1;ratioP1;P1;durP2;ratioP2;P2;SDS_P1;SDS_P2;PMS_P1;PMS_P2;Temp;Humidity;BMP_temperature;BMP_pressure;BME280_temperature;BME280_humidity;BME280_pressure;Samples;Min_cycle;Max_cycle;Signal;HPM_P1;HPM_P2
2024/01/17 00:00:45;;;;;;;0.00;0.00;;;-2.20;99.90;;;;;;5001976;28;20481;-63
2024/01/17 00:03:11;;;;;;;0.00;0.00;;;-2.20;99.90;;;;;;4994950;28;20030;-63
2024/01/17 00:05:37;;;;;;;0.00;0.00;;;-2.20;99.90;;;;;;5002667;28;20026;-64
2024/01/17 00:08:03;;;;;;;0.00;0.00;;;-2.20;99.90;;;;;;4999139;28;20040;-63
2024/01/17 00:10:29;;;;;;;0.10;0.10;;;-2.20;99.90;;;;;;5000631;28;20026;-60
2024/01/17 00:12:54;;;;;;;0.00;0.00;;;-2.30;99.90;;;;;;4996669;28;20044;-61
2024/01/17 00:15:20;;;;;;;0.03;0.03;;;-2.30;99.90;;;;;;4997568;28;20631;-60
2024/01/17 00:17:49;;;;;;;0.00;0.00;;;-2.30;99.90;;;;;;5001661;28;20105;-61
2024/01/17 00:45:21;;;;;;;0.00;0.00;;;-2.40;99.90;;;;;;4996216;28;20029;-61
2024/01/17 00:47:47;;;;;;;0.00;0.00;;;-2.60;99.90;;;;;;5012519;28;20044;-61
2024/01/17 00:50:14;;;;;;;0.00;0.00;;;-2.70;99.90;;;;;;4996594;28;20030;-61
2024/01/17 00:52:40;;;;;;;0.00;0.00;;;-2.70;99.90;;;;;;4996651;28;20512;-62
2024/01/17 00:55:06;;;;;;;0.00;0.00;;;-2.70;99.90;;;;;;4995935;28;20029;-60
2024/01/17 00:57:31;;;;;;;0.00;0.00;;;-2.70;99.90;;;;;;4994772;28;20029;-61
2024/01/17 00:59:57;;;;;;;0.00;0.00;;;-2.70;99.90;;;;;;4996441;28;20050;-61
2024/01/17 01:02:23;;;;;;;0.20;0.20;;;-2.60;99.90;;;;;;4994930;28;20034;-60
2024/01/17 01:04:48;;;;;;;0.00;0.00;;;-2.70;99.90;;;;;;4998325;28;20028;-61
2024/01/17 01:07:15;;;;;;;0.00;0.00;;;-2.70;99.90;;;;;;4993095;28;20025;-61
2024/01/17 01:09:40;;;;;;;0.00;0.00;;;-2.70;99.90;;;;;;4997395;28;20026;-60
2024/01/17 01:12:07;;;;;;;0.00;0.00;;;-2.70;99.90;;;;;;4994743;28;20029;-61
2024/01/17 01:14:32;;;;;;;0.00;0.00;;;-2.70;99.90;;;;;;4995955;28;20034;-61
2024/01/17 01:16:58;;;;;;;0.00;0.00;;;-2.70;99.90;;;;;;4995240;28;20034;-61
2024/01/17 01:19:24;;;;;;;0.00;0.00;;;-2.70;99.90;;;;;;4997804;28;20585;-62
2024/01/17 01:21:49;;;;;;;0.00;0.00;;;-2.70;99.90;;;;;;4994259;28;20053;-63
2024/01/17 01:24:15;;;;;;;1.00;1.00;;;-2.70;99.90;;;;;;4995275;28;20010;-64
2024/01/17 01:26:41;;;;;;;0.00;0.00;;;-2.80;99.90;;;;;;4997121;28;20474;-64
2024/01/17 01:29:07;;;;;;;0.00;0.00;;;-2.80;99.90;;;;;;4995881;28;20037;-64
2024/01/17 01:31:33;;;;;;;0.00;0.00;;;-2.80;99.90;;;;;;4995811;28;20037;-64
2024/01/17 01:33:59;;;;;;;0.00;0.00;;;-2.90;99.90;;;;;;4996350;28;20026;-64
2024/01/17 01:36:24;;;;;;;0.00;0.00;;;-2.80;99.90;;;;;;4995856;28;20025;-64
2024/01/17 01:38:50;;;;;;;0.00;0.00;;;-2.80;99.90;;;;;;4992142;28;21894;-63
2024/01/17 01:41:16;;;;;;;0.30;0.30;;;-2.80;99.90;;;;;;5001018;28;20281;-64
2024/01/17 01:43:42;;;;;;;0.00;0.00;;;-2.80;99.90;;;;;;4992972;28;20030;-63
2024/01/17 01:46:17;;;;;;;0.00;0.00;;;-2.90;99.90;;;;;;4997420;28;20029;-63
2024/01/17 01:48:44;;;;;;;0.00;0.00;;;-2.90;99.90;;;;;;4996263;28;20520;-65
2024/01/17 01:51:11;;;;;;;0.77;0.73;;;-2.90;99.90;;;;;;4996635;28;20108;-64
2024/01/17 01:53:39;;;;;;;0.03;0.03;;;-2.90;99.90;;;;;;4997847;28;20106;-63
2024/01/17 01:56:06;;;;;;;0.00;0.00;;;-2.90;99.90;;;;;;5000280;28;20484;-63
2024/01/17 01:58:35;;;;;;;0.10;0.10;;;-2.90;99.90;;;;;;4998815;28;20511;-63
2024/01/17 02:01:02;;;;;;;0.00;0.00;;;-2.90;99.90;;;;;;4998096;28;20033;-64
2024/01/17 02:03:29;;;;;;;0.00;0.00;;;-2.90;99.90;;;;;;4997423;28;20026;-64
2024/01/17 02:05:56;;;;;;;0.00;0.00;;;-2.90;99.90;;;;;;4998870;28;20417;-64
2024/01/17 02:08:21;;;;;;;0.00;0.00;;;-3.00;99.90;;;;;;4996903;28;20018;-64
2024/01/17 02:10:47;;;;;;;0.83;0.83;;;-3.00;99.90;;;;;;4993200;28;20096;-63
2024/01/17 02:13:13;;;;;;;0.00;0.00;;;-3.00;99.90;;;;;;4996948;28;20022;-63
2024/01/17 02:15:39;;;;;;;0.00;0.00;;;-3.00;99.90;;;;;;4993794;28;20022;-64
2024/01/17 02:18:05;;;;;;;0.00;0.00;;;-3.10;99.90;;;;;;5015896;28;20038;-64
2024/01/17 02:20:31;;;;;;;0.00;0.00;;;-3.10;99.90;;;;;;4995670;28;20655;-63
2024/01/17 02:22:57;;;;;;;0.00;0.00;;;-3.10;99.90;;;;;;5009799;28;20018;-64
2024/01/17 02:25:22;;;;;;;0.00;0.00;;;-3.20;99.90;;;;;;4993253;28;20042;-64
2024/01/17 02:27:48;;;;;;;0.00;0.00;;;-3.20;99.90;;;;;;4991994;28;20122;-64
2024/01/17 02:30:14;;;;;;;0.00;0.00;;;-3.20;99.90;;;;;;4996102;28;20014;-62
2024/01/17 02:32:42;;;;;;;0.20;0.20;;;-3.30;99.90;;;;;;4995057;28;20018;-61
2024/01/17 02:35:08;;;;;;;0.00;0.00;;;-3.30;99.90;;;;;;5015701;28;20089;-60
2024/01/17 02:37:34;;;;;;;0.55;0.55;;;-3.40;99.90;;;;;;4994338;28;20045;-61
2024/01/17 02:39:59;;;;;;;0.00;0.00;;;-3.40;99.90;;;;;;4991893;28;20022;-60
2024/01/17 02:42:25;;;;;;;0.00;0.00;;;-3.40;99.90;;;;;;4996007;28;20014;-62
2024/01/17 02:44:51;;;;;;;0.00;0.00;;;-3.40;99.90;;;;;;4996243;28;20028;-61
2024/01/17 02:47:16;;;;;;;0.47;0.47;;;-3.30;99.90;;;;;;4999784;28;20061;-61
2024/01/17 02:49:42;;;;;;;0.00;0.00;;;-3.10;99.90;;;;;;4993646;28;20033;-62
2024/01/17 02:52:08;;;;;;;0.07;0.07;;;-3.00;99.90;;;;;;4996792;28;20523;-60
2024/01/17 02:54:33;;;;;;;0.00;0.00;;;-2.90;99.90;;;;;;4992627;28;20044;-60
2024/01/17 02:56:59;;;;;;;0.00;0.00;;;-2.80;99.90;;;;;;4998458;28;20026;-60
2024/01/17 02:59:25;;;;;;;0.00;0.00;;;-2.80;99.90;;;;;;4998745;28;20026;-62
2024/01/17 03:01:53;;;;;;;0.00;0.00;;;-2.70;99.90;;;;;;4999450;28;20018;-62
2024/01/17 03:04:19;;;;;;;0.00;0.00;;;-2.70;99.90;;;;;;5000386;28;20045;-61
2024/01/17 03:06:46;;;;;;;0.00;0.00;;;-2.70;99.90;;;;;;5001473;28;20131;-62
2024/01/17 03:09:12;;;;;;;0.10;0.10;;;-2.60;99.90;;;;;;5021231;28;20713;-60
2024/01/17 03:11:37;;;;;;;0.00;0.00;;;-2.60;99.90;;;;;;4998901;28;20033;-62
2024/01/17 03:14:03;;;;;;;0.17;0.07;;;-2.50;99.90;;;;;;4999130;28;20199;-61
2024/01/17 03:16:29;;;;;;;0.00;0.00;;;-2.40;99.90;;;;;;4998871;28;20478;-61
2024/01/17 03:18:55;;;;;;;0.57;0.57;;;-2.50;99.90;;;;;;4999178;28;20778;-61
2024/01/17 03:21:21;;;;;;;0.00;0.00;;;-2.60;99.90;;;;;;5000039;28;20068;-62
2024/01/17 03:23:47;;;;;;;0.17;0.17;;;-2.70;99.90;;;;;;5000100;28;20021;-60
2024/01/17 03:26:13;;;;;;;2.33;0.77;;;-2.70;99.90;;;;;;4996744;28;20045;-60
2024/01/17 03:28:40;;;;;;;2.60;0.83;;;-2.70;99.90;;;;;;4998099;28;20010;-61
2024/01/17 03:31:05;;;;;;;1.98;1.27;;;-2.70;99.90;;;;;;4998780;28;20385;-60
2024/01/17 03:33:31;;;;;;;0.00;0.00;;;-2.70;99.90;;;;;;4998804;28;20030;-60
2024/01/17 03:35:56;;;;;;;0.00;0.00;;;-2.60;99.90;;;;;;4998375;28;20087;-61
2024/01/17 03:38:22;;;;;;;0.60;0.60;;;-2.60;99.90;;;;;;4995858;28;20022;-61
2024/01/17 03:40:48;;;;;;;0.00;0.00;;;-2.60;99.90;;;;;;5003774;28;20040;-63
2024/01/17 03:43:14;;;;;;;0.00;0.00;;;-2.60;99.90;;;;;;4996182;28;20033;-63
2024/01/17 03:45:39;;;;;;;0.00;0.00;;;-2.70;99.90;;;;;;4999713;28;20593;-63
2024/01/17 03:48:06;;;;;;;0.47;0.20;;;-2.70;99.90;;;;;;4995655;28;20037;-63
2024/01/17 03:50:32;;;;;;;;;;;-2.70;99.90;;;;;;4999403;28;20061;-64
2024/01/17 03:52:59;;;;;;;0.00;0.00;;;-2.70;99.90;;;;;;4999017;28;19913;-63
2024/01/17 03:55:24;;;;;;;0.22;0.22;;;-2.60;99.90;;;;;;5000088;28;20064;-64
2024/01/17 03:57:50;;;;;;;0.00;0.00;;;-2.60;99.90;;;;;;5001932;28;20061;-63
2024/01/17 04:00:16;;;;;;;0.00;0.00;;;-2.70;99.90;;;;;;4997319;28;20030;-63
2024/01/17 04:02:41;;;;;;;0.00;0.00;;;-2.60;99.90;;;;;;4998462;28;20389;-64
2024/01/17 04:05:07;;;;;;;0.00;0.00;;;-2.60;99.90;;;;;;5003294;28;20022;-63
2024/01/17 04:07:33;;;;;;;0.00;0.00;;;-2.60;99.90;;;;;;4997530;28;20022;-64
2024/01/17 04:09:58;;;;;;;0.00;0.00;;;-2.40;99.90;;;;;;4998984;28;20136;-63
2024/01/17 04:12:24;;;;;;;0.00;0.00;;;-2.40;99.90;;;;;;4999344;28;20022;-63
2024/01/17 04:14:50;;;;;;;0.10;0.10;;;-2.50;99.90;;;;;;5001020;28;20021;-64
2024/01/17 04:17:16;;;;;;;0.00;0.00;;;-2.40;99.90;;;;;;4997893;28;20026;-64
2024/01/17 04:19:41;;;;;;;0.00;0.00;;;-2.40;99.90;;;;;;4998574;28;20018;-64
2024/01/17 04:22:07;;;;;;;0.00;0.00;;;-2.40;99.90;;;;;;4994799;28;20022;-63
2024/01/17 04:24:33;;;;;;;0.00;0.00;;;-2.40;99.90;;;;;;5014142;28;20872;-63
2024/01/17 04:26:58;;;;;;;0.00;0.00;;;-2.50;99.90;;;;;;4999559;28;20022;-63
2024/01/17 04:29:24;;;;;;;0.00;0.00;;;-2.40;99.90;;;;;;4996674;28;20659;-63
2024/01/17 04:31:50;;;;;;;0.00;0.00;;;-2.30;99.90;;;;;;4998195;28;20056;-63
2024/01/17 04:34:16;;;;;;;0.00;0.00;;;-2.20;99.90;;;;;;4998699;28;20022;-63
2024/01/17 04:36:41;;;;;;;0.00;0.00;;;-2.30;99.90;;;;;;4999340;28;20030;-63
2024/01/17 04:39:08;;;;;;;0.00;0.00;;;-2.40;99.90;;;;;;4997677;28;20052;-63
2024/01/17 04:41:34;;;;;;;0.00;0.00;;;-2.50;99.90;;;;;;4993315;28;21349;-63
2024/01/17 04:44:00;;;;;;;5.07;0.87;;;-2.60;99.90;;;;;;4997258;28;20037;-63
2024/01/17 04:46:27;;;;;;;0.30;0.30;;;-2.70;99.90;;;;;;5000215;28;20076;-64
2024/01/17 04:48:52;;;;;;;0.43;0.43;;;-2.80;99.90;;;;;;4997835;28;20505;-64
2024/01/17 04:51:22;;;;;;;0.00;0.00;;;-2.80;99.90;;;;;;4997497;28;20110;-61
2024/01/17 04:53:48;;;;;;;0.00;0.00;;;-2.80;99.90;;;;;;4995812;28;20025;-60
2024/01/17 04:56:15;;;;;;;0.00;0.00;;;-2.90;99.90;;;;;;4997657;28;20084;-62
2024/01/17 04:58:46;;;;;;;0.20;0.10;;;-2.90;99.90;;;;;;4993261;28;20061;-61
2024/01/17 05:01:12;;;;;;;0.10;0.08;;;-2.80;99.90;;;;;;4995550;28;20022;-60
2024/01/17 05:03:42;;;;;;;0.00;0.00;;;-2.80;99.90;;;;;;4999345;28;20076;-61
2024/01/17 05:06:08;;;;;;;0.00;0.00;;;-2.70;99.90;;;;;;4998942;28;20018;-62
2024/01/17 05:08:34;;;;;;;0.00;0.00;;;-2.70;99.90;;;;;;5012742;28;20763;-60
2024/01/17 05:11:00;;;;;;;0.00;0.00;;;-2.70;99.90;;;;;;4998430;28;20041;-61
2024/01/17 05:13:25;;;;;;;0.00;0.00;;;-2.60;99.90;;;;;;4994513;28;20030;-62
2024/01/17 05:15:51;;;;;;;0.00;0.00;;;-2.60;99.90;;;;;;5000658;28;20035;-62
2024/01/17 05:18:17;;;;;;;0.00;0.00;;;-2.60;99.90;;;;;;4992571;28;20134;-62
2024/01/17 05:20:42;;;;;;;0.00;0.00;;;-2.60;99.90;;;;;;4998451;28;21084;-60
2024/01/17 05:23:08;;;;;;;0.00;0.00;;;-2.60;99.90;;;;;;4999181;28;20564;-59
2024/01/17 05:25:34;;;;;;;0.00;0.00;;;-2.60;99.90;;;;;;4998717;28;20041;-60
2024/01/17 05:27:59;;;;;;;0.00;0.00;;;-2.60;99.90;;;;;;4997401;28;20113;-60
2024/01/17 05:30:25;;;;;;;0.00;0.00;;;-2.60;99.90;;;;;;5012330;28;20091;-59
2024/01/17 05:32:52;;;;;;;0.00;0.00;;;-2.60;99.90;;;;;;4997819;28;20030;-60
2024/01/17 05:35:19;;;;;;;0.08;0.08;;;-2.60;99.90;;;;;;4997065;28;20034;-61
2024/01/17 05:37:45;;;;;;;0.00;0.00;;;-2.60;99.90;;;;;;4992074;28;20754;-60
2024/01/17 05:40:12;;;;;;;0.00;0.00;;;-2.60;99.90;;;;;;4995175;28;20042;-59
2024/01/17 05:42:38;;;;;;;0.43;0.28;;;-2.60;99.90;;;;;;4997221;28;20022;-61
2024/01/17 05:45:05;;;;;;;0.00;0.00;;;-2.60;99.90;;;;;;4993059;28;21460;-61
2024/01/17 05:47:31;;;;;;;0.00;0.00;;;-2.60;99.90;;;;;;5012901;28;20018;-59
2024/01/17 05:49:57;;;;;;;0.00;0.00;;;-2.60;99.90;;;;;;4993750;28;20417;-59
2024/01/17 05:52:25;;;;;;;0.32;0.32;;;-2.60;99.90;;;;;;4997266;28;20056;-60
2024/01/17 05:54:51;;;;;;;0.10;0.10;;;-2.60;99.90;;;;;;4997630;28;20500;-60
2024/01/17 05:57:17;;;;;;;0.00;0.00;;;-2.60;99.90;;;;;;4997973;28;20033;-59
2024/01/17 05:59:42;;;;;;;0.00;0.00;;;-2.50;99.90;;;;;;4993371;28;20037;-60
2024/01/17 06:02:08;;;;;;;0.63;0.63;;;-2.50;99.90;;;;;;4996455;28;20592;-60
2024/01/17 06:04:34;;;;;;;1.37;0.93;;;-2.40;99.90;;;;;;4997934;28;20033;-60
2024/01/17 06:07:00;;;;;;;0.00;0.00;;;-2.50;99.90;;;;;;5011138;28;20033;-60
2024/01/17 06:09:25;;;;;;;0.00;0.00;;;-2.50;99.90;;;;;;4997579;28;20026;-59
2024/01/17 06:11:51;;;;;;;0.00;0.00;;;-2.40;99.90;;;;;;4997724;28;20018;-60
2024/01/17 06:14:17;;;;;;;0.00;0.00;;;-2.40;99.90;;;;;;4996120;28;20041;-60
2024/01/17 06:16:44;;;;;;;0.00;0.00;;;-2.40;99.90;;;;;;4999079;28;20052;-62
2024/01/17 06:19:10;;;;;;;0.47;0.47;;;-2.30;99.90;;;;;;4996815;28;20601;-59
2024/01/17 06:21:36;;;;;;;0.00;0.00;;;-2.20;99.90;;;;;;4998448;28;20033;-59
2024/01/17 06:24:01;;;;;;;0.47;0.47;;;-2.20;99.90;;;;;;4996251;28;20033;-60
2024/01/17 06:26:27;;;;;;;0.00;0.00;;;-2.20;99.90;;;;;;4997772;28;20354;-61
2024/01/17 06:28:53;;;;;;;0.00;0.00;;;-2.20;99.90;;;;;;4996469;28;20473;-60
2024/01/17 06:31:24;;;;;;;0.00;0.00;;;-2.30;99.90;;;;;;4998450;28;20426;-61
2024/01/17 06:33:49;;;;;;;0.00;0.00;;;-2.40;99.90;;;;;;4998843;28;20169;-60
2024/01/17 06:36:15;;;;;;;0.00;0.00;;;-2.40;99.90;;;;;;5000751;28;20117;-61
2024/01/17 06:38:41;;;;;;;0.00;0.00;;;-2.30;99.90;;;;;;4998877;28;20017;-61
2024/01/17 06:41:06;;;;;;;0.00;0.00;;;-2.40;99.90;;;;;;5001048;28;20030;-60
2024/01/17 06:43:32;;;;;;;0.00;0.00;;;-2.40;99.90;;;;;;5000770;28;20779;-60
2024/01/17 06:45:58;;;;;;;0.03;0.03;;;-2.30;99.90;;;;;;4997035;28;20038;-61
2024/01/17 06:48:23;;;;;;;1.98;0.38;;;-2.40;99.90;;;;;;5000113;28;20018;-59
2024/01/17 06:50:49;;;;;;;0.00;0.00;;;-2.40;99.90;;;;;;4997591;28;20399;-59
2024/01/17 06:53:17;;;;;;;0.00;0.00;;;-2.40;99.90;;;;;;4995069;28;20018;-60
2024/01/17 06:55:43;;;;;;;0.00;0.00;;;-2.40;99.90;;;;;;4999855;28;20442;-60
2024/01/17 06:58:10;;;;;;;0.35;0.35;;;-2.30;99.90;;;;;;4997095;28;20485;-60
2024/01/17 07:00:36;;;;;;;0.00;0.00;;;-2.30;99.90;;;;;;4999614;28;20445;-60
2024/01/17 07:03:01;;;;;;;0.17;0.17;;;-2.30;99.90;;;;;;4997591;28;20026;-60
2024/01/17 07:05:28;;;;;;;0.00;0.00;;;-2.30;99.90;;;;;;5001378;28;20022;-61
2024/01/17 07:07:53;;;;;;;0.00;0.00;;;-2.20;99.90;;;;;;4998632;28;20107;-62
2024/01/17 07:10:19;;;;;;;0.20;0.20;;;-2.20;99.90;;;;;;5000583;28;20029;-63
2024/01/17 07:12:45;;;;;;;0.00;0.00;;;-2.20;99.90;;;;;;4998694;28;20026;-62
2024/01/17 07:15:12;;;;;;;0.00;0.00;;;-2.20;99.90;;;;;;4999883;28;20435;-63
2024/01/17 07:17:37;;;;;;;0.00;0.00;;;-2.20;99.90;;;;;;4999572;28;20036;-63
2024/01/17 07:20:04;;;;;;;2.90;2.70;;;-2.20;99.90;;;;;;4999886;28;20034;-63
2024/01/17 07:22:30;;;;;;;0.00;0.00;;;-2.10;99.90;;;;;;4999203;28;20018;-63
2024/01/17 07:24:56;;;;;;;0.00;0.00;;;-2.10;99.90;;;;;;4998674;28;20021;-63
2024/01/17 07:27:21;;;;;;;0.00;0.00;;;-2.00;99.90;;;;;;5004245;28;20625;-63
2024/01/17 07:29:47;;;;;;;0.10;0.10;;;-2.00;99.90;;;;;;4997304;28;20034;-63
2024/01/17 07:32:13;;;;;;;0.00;0.00;;;-2.00;99.90;;;;;;4999266;28;20112;-62
2024/01/17 07:34:38;;;;;;;0.00;0.00;;;-2.00;99.90;;;;;;4997489;28;20053;-63
2024/01/17 07:37:04;;;;;;;0.00;0.00;;;-2.00;99.90;;;;;;5016483;28;20567;-63
2024/01/17 07:39:30;;;;;;;0.00;0.00;;;-1.90;99.90;;;;;;4998995;28;20018;-63
2024/01/17 07:41:56;;;;;;;0.00;0.00;;;-2.00;99.90;;;;;;5013960;28;20514;-63
2024/01/17 07:44:26;;;;;;;0.00;0.00;;;-1.90;99.90;;;;;;4997806;28;20093;-63
2024/01/17 07:46:53;;;;;;;0.00;0.00;;;-1.90;99.90;;;;;;5003177;28;20018;-63
2024/01/17 07:49:19;;;;;;;0.00;0.00;;;-1.90;99.90;;;;;;4995293;28;20653;-63
2024/01/17 07:51:45;;;;;;;0.00;0.00;;;-1.90;99.90;;;;;;4999295;28;20057;-63
2024/01/17 07:54:13;;;;;;;0.00;0.00;;;-1.80;99.90;;;;;;4995949;28;20061;-63
2024/01/17 07:56:38;;;;;;;0.00;0.00;;;-1.70;99.90;;;;;;4999449;28;20042;-62
2024/01/17 07:59:04;;;;;;;0.00;0.00;;;-1.60;99.90;;;;;;4999035;28;20060;-63
2024/01/17 08:01:30;;;;;;;0.53;0.53;;;-1.60;99.90;;;;;;5015072;28;20018;-63
2024/01/17 08:03:55;;;;;;;0.10;0.10;;;-1.70;99.90;;;;;;4998554;28;20029;-62
2024/01/17 08:06:21;;;;;;;0.00;0.00;;;-1.80;99.90;;;;;;4999525;28;20037;-63
2024/01/17 08:08:47;;;;;;;0.00;0.00;;;-1.90;99.90;;;;;;4995342;28;20160;-63
2024/01/17 08:11:12;;;;;;;0.00;0.00;;;-1.90;99.90;;;;;;4999271;28;20064;-63
2024/01/17 08:13:38;;;;;;;0.00;0.00;;;-1.90;99.90;;;;;;4998055;28;20057;-63
2024/01/17 08:16:04;;;;;;;0.00;0.00;;;-1.90;99.90;;;;;;4998119;28;20037;-63
2024/01/17 08:18:30;;;;;;;0.00;0.00;;;-1.80;99.90;;;;;;4995117;28;20030;-63
2024/01/17 08:20:55;;;;;;;0.00;0.00;;;-1.80;99.90;;;;;;4998465;28;20354;-63
2024/01/17 08:23:21;;;;;;;4.40;2.50;;;-1.80;99.90;;;;;;4999365;28;20138;-63
2024/01/17 08:25:47;;;;;;;2.17;1.70;;;-1.80;99.90;;;;;;4998134;28;20073;-63
2024/01/17 08:28:12;;;;;;;0.00;0.00;;;-1.70;99.90;;;;;;4998575;28;20029;-63
2024/01/17 08:30:38;;;;;;;0.00;0.00;;;-1.70;99.90;;;;;;4999038;28;20088;-63
2024/01/17 08:33:04;;;;;;;0.00;0.00;;;-1.80;99.90;;;;;;4995420;28;20115;-63
2024/01/17 08:35:31;;;;;;;0.30;0.30;;;-1.80;99.90;;;;;;4997956;28;20497;-63
2024/01/17 08:37:56;;;;;;;0.00;0.00;;;-1.80;99.90;;;;;;4998010;28;20128;-63
2024/01/17 08:40:22;;;;;;;0.00;0.00;;;-1.80;99.90;;;;;;4997011;28;20550;-63
2024/01/17 08:42:48;;;;;;;0.00;0.00;;;-1.70;99.90;;;;;;4992802;28;20450;-63
2024/01/17 08:45:15;;;;;;;0.00;0.00;;;-1.70;99.90;;;;;;4998721;28;20040;-64
2024/01/17 08:47:42;;;;;;;0.05;0.05;;;-1.60;99.90;;;;;;4997785;28;20022;-63
2024/01/17 08:50:09;;;;;;;0.00;0.00;;;-1.50;99.90;;;;;;4992909;28;20026;-63
2024/01/17 08:52:35;;;;;;;0.00;0.00;;;-1.50;99.90;;;;;;4999719;28;20024;-63
2024/01/17 08:55:02;;;;;;;0.00;0.00;;;-1.50;99.90;;;;;;5014007;28;20030;-63
2024/01/17 08:57:28;;;;;;;0.00;0.00;;;-1.50;99.90;;;;;;4999122;28;20022;-63
2024/01/17 08:59:54;;;;;;;0.00;0.00;;;-1.50;99.90;;;;;;5014239;28;20075;-63
2024/01/17 09:02:20;;;;;;;0.32;0.32;;;-1.60;99.90;;;;;;4998004;28;20036;-63
2024/01/17 09:04:45;;;;;;;0.00;0.00;;;-1.50;99.90;;;;;;5001088;28;20030;-63
2024/01/17 09:07:11;;;;;;;0.00;0.00;;;-1.60;99.90;;;;;;4994549;28;20076;-64
2024/01/17 09:09:37;;;;;;;0.00;0.00;;;-1.50;99.90;;;;;;4999406;28;20025;-63
2024/01/17 09:12:02;;;;;;;0.00;0.00;;;-1.50;99.90;;;;;;4998486;28;20108;-64
2024/01/17 09:14:28;;;;;;;0.00;0.00;;;-1.60;99.90;;;;;;4998702;28;20040;-63
2024/01/17 09:16:55;;;;;;;1.30;1.20;;;-1.50;99.90;;;;;;4998979;28;20049;-63
2024/01/17 09:19:21;;;;;;;0.10;0.10;;;-1.40;99.90;;;;;;4999373;28;20033;-63
2024/01/17 09:21:48;;;;;;;0.00;0.00;;;-1.50;99.90;;;;;;4995740;28;20026;-63
2024/01/17 09:24:14;;;;;;;0.00;0.00;;;-1.40;99.90;;;;;;4998689;28;20029;-64
2024/01/17 09:26:39;;;;;;;0.00;0.00;;;-1.40;99.90;;;;;;4995804;28;20018;-63
2024/01/17 09:29:05;;;;;;;0.00;0.00;;;-1.30;99.90;;;;;;5025698;28;20319;-64
2024/01/17 09:31:30;;;;;;;0.00;0.00;;;-1.30;99.90;;;;;;4997608;28;20036;-62
2024/01/17 09:33:56;;;;;;;0.00;0.00;;;-1.30;99.90;;;;;;5003105;28;20251;-60
2024/01/17 09:36:22;;;;;;;0.00;0.00;;;-1.40;99.90;;;;;;5013403;28;20026;-60
2024/01/17 09:38:47;;;;;;;0.00;0.00;;;-1.50;99.90;;;;;;4997594;28;20026;-60
2024/01/17 09:41:14;;;;;;;0.00;0.00;;;-1.50;99.90;;;;;;4997392;28;20022;-59
2024/01/17 09:43:40;;;;;;;0.00;0.00;;;-1.40;99.90;;;;;;4997332;28;20432;-60
2024/01/17 09:46:11;;;;;;;0.00;0.00;;;-1.40;99.90;;;;;;4997227;28;20037;-59
2024/01/17 09:48:39;;;;;;;0.00;0.00;;;-1.40;99.90;;;;;;4997180;28;20641;-60
2024/01/17 09:51:04;;;;;;;0.00;0.00;;;-1.40;99.90;;;;;;4998004;28;20721;-60
2024/01/17 09:53:33;;;;;;;0.00;0.00;;;-1.40;99.90;;;;;;4995639;28;20101;-61
2024/01/17 09:56:01;;;;;;;0.20;0.20;;;-1.40;99.90;;;;;;4996770;28;20037;-60
2024/01/17 09:58:33;;;;;;;0.00;0.00;;;-1.30;99.90;;;;;;4996744;28;20018;-59
2024/01/17 10:01:04;;;;;;;0.00;0.00;;;-1.20;99.90;;;;;;4995147;28;20063;-59
2024/01/17 10:03:30;;;;;;;0.00;0.00;;;-1.10;99.90;;;;;;4996510;28;20057;-61
2024/01/17 10:05:56;;;;;;;0.55;0.55;;;-1.10;99.90;;;;;;4996344;28;20626;-60
2024/01/17 10:08:24;;;;;;;0.00;0.00;;;-1.10;99.90;;;;;;4997070;28;20030;-60
2024/01/17 10:10:49;;;;;;;0.22;0.22;;;-1.00;99.90;;;;;;4997185;28;20722;-61
2024/01/17 10:13:15;;;;;;;0.00;0.00;;;-1.00;99.90;;;;;;4996661;28;20048;-59
2024/01/17 10:15:45;;;;;;;0.00;0.00;;;-1.00;99.90;;;;;;4993120;28;20021;-60
2024/01/17 10:18:11;;;;;;;0.00;0.00;;;-1.00;99.90;;;;;;4996685;28;20469;-62
2024/01/17 10:20:36;;;;;;;0.00;0.00;;;-1.00;99.90;;;;;;4995111;28;20029;-62
2024/01/17 10:23:03;;;;;;;0.00;0.00;;;-1.00;99.90;;;;;;4996745;28;20033;-60
2024/01/17 10:25:39;;;;;;;1.20;1.10;;;-1.00;99.90;;;;;;4997577;28;20629;-61
2024/01/17 10:28:06;;;;;;;0.00;0.00;;;-0.90;99.90;;;;;;4997820;28;20120;-62
2024/01/17 10:30:31;;;;;;;;;;;-0.90;99.90;;;;;;4994898;28;20022;-62
2024/01/17 10:32:58;;;;;;;0.00;0.00;;;-0.80;99.90;;;;;;4996644;28;20357;-61
2024/01/17 10:35:24;;;;;;;0.00;0.00;;;-0.70;99.90;;;;;;4996341;28;20021;-61
2024/01/17 10:37:52;;;;;;;1.08;1.08;;;-0.60;99.90;;;;;;4995164;28;20029;-60
2024/01/17 10:40:19;;;;;;;0.00;0.00;;;-0.70;99.90;;;;;;4997401;28;20145;-63
2024/01/17 10:42:45;;;;;;;0.00;0.00;;;-0.80;99.90;;;;;;4992560;28;20393;-60
2024/01/17 10:45:21;;;;;;;0.43;0.43;;;-0.80;99.90;;;;;;4996993;28;20029;-60
2024/01/17 10:47:48;;;;;;;0.00;0.00;;;-0.70;99.90;;;;;;4996996;28;20030;-61
2024/01/17 10:50:14;;;;;;;;;;;-0.60;99.90;;;;;;4997497;28;20408;-61
2024/01/17 10:52:41;;;;;;;0.00;0.00;;;-0.40;99.90;;;;;;4995637;28;19912;-60
2024/01/17 10:55:08;;;;;;;0.00;0.00;;;-0.40;99.90;;;;;;4996899;28;20635;-60
2024/01/17 10:57:41;;;;;;;0.00;0.00;;;-0.40;99.90;;;;;;4997296;28;20036;-61
2024/01/17 11:00:11;;;;;;;0.00;0.00;;;-0.40;99.90;;;;;;4998219;28;20527;-60
2024/01/17 11:02:40;;;;;;;0.47;0.47;;;-0.30;99.90;;;;;;4995903;28;20049;-61
2024/01/17 11:05:15;;;;;;;0.00;0.00;;;-0.20;99.90;;;;;;4994252;28;20584;-62
2024/01/17 11:07:41;;;;;;;0.00;0.00;;;-0.30;99.90;;;;;;5009856;28;20040;-64
2024/01/17 11:10:09;;;;;;;0.00;0.00;;;-0.40;99.90;;;;;;4997290;28;20072;-65
2024/01/17 11:12:39;;;;;;;0.00;0.00;;;-0.40;99.90;;;;;;4997314;28;20022;-63
2024/01/17 11:15:05;;;;;;;0.00;0.00;;;-0.50;99.90;;;;;;4995903;28;20046;-63
2024/01/17 11:17:36;;;;;;;;;;;-0.50;99.90;;;;;;4996189;28;20104;-66
2024/01/17 11:20:10;;;;;;;0.00;0.00;;;-0.50;99.90;;;;;;4999502;28;20003;-62
2024/01/17 11:22:37;;;;;;;0.00;0.00;;;-0.60;99.90;;;;;;4997342;28;20489;-64
2024/01/17 11:25:24;;;;;;;0.00;0.00;;;-0.60;99.90;;;;;;4995703;28;20133;-65
2024/01/17 11:28:04;;;;;;;0.00;0.00;;;-0.60;99.90;;;;;;4997238;28;20025;-64
2024/01/17 11:30:42;;;;;;;0.00;0.00;;;-0.60;99.90;;;;;;4998473;28;20029;-63
2024/01/17 11:33:10;;;;;;;0.00;0.00;;;-0.60;99.90;;;;;;4999948;28;20040;-64
2024/01/17 11:35:43;;;;;;;0.08;0.08;;;-0.60;99.90;;;;;;4999707;28;20774;-63
2024/01/17 11:38:24;;;;;;;0.00;0.00;;;-0.50;99.90;;;;;;4995557;28;20375;-63
2024/01/17 11:41:08;;;;;;;0.00;0.00;;;-0.50;99.90;;;;;;4995619;28;20751;-63
2024/01/17 11:43:38;;;;;;;0.00;0.00;;;-0.40;99.90;;;;;;4995524;28;20022;-64
2024/01/17 11:46:05;;;;;;;0.17;0.17;;;-0.30;99.90;;;;;;4994612;28;20057;-66
2024/01/17 11:48:32;;;;;;;0.20;0.20;;;-0.20;99.90;;;;;;4997712;28;20053;-60
2024/01/17 11:51:01;;;;;;;0.05;0.05;;;-0.30;99.90;;;;;;4996932;28;20553;-61
2024/01/17 11:53:28;;;;;;;0.98;0.98;;;-0.30;99.90;;;;;;4995813;28;20018;-60
2024/01/17 11:55:56;;;;;;;0.65;0.65;;;-0.30;99.90;;;;;;5005306;28;20081;-62
2024/01/17 11:58:40;;;;;;;0.00;0.00;;;-0.30;99.90;;;;;;4994911;28;20014;-61
2024/01/17 12:01:09;;;;;;;0.00;0.00;;;-0.30;99.90;;;;;;4998275;28;20064;-61
2024/01/17 12:03:35;;;;;;;0.00;0.00;;;-0.20;99.90;;;;;;4995021;28;20919;-62
2024/01/17 12:06:02;;;;;;;0.00;0.00;;;-0.30;99.90;;;;;;5000250;28;20021;-60
2024/01/17 12:08:28;;;;;;;0.00;0.00;;;-0.20;99.90;;;;;;4998391;28;20072;-61
2024/01/17 12:10:54;;;;;;;1.65;1.20;;;-0.20;99.90;;;;;;4996446;28;20029;-60
2024/01/17 12:13:22;;;;;;;0.00;0.00;;;-0.30;99.90;;;;;;4994585;28;20107;-61
2024/01/17 12:15:55;;;;;;;0.55;0.55;;;-0.30;99.90;;;;;;4998338;28;20519;-61
2024/01/17 12:18:23;;;;;;;3.22;1.25;;;-0.30;99.90;;;;;;4999047;28;20018;-61
2024/01/17 12:20:50;;;;;;;0.00;0.00;;;-0.30;99.90;;;;;;4994733;28;20038;-61
2024/01/17 12:23:21;;;;;;;0.25;0.25;;;-0.30;99.90;;;;;;5003129;28;20028;-60
2024/01/17 12:25:48;;;;;;;0.00;0.00;;;-0.20;99.90;;;;;;4998186;28;20041;-60
2024/01/17 12:28:20;;;;;;;;;;;-0.10;99.90;;;;;;4997056;28;20014;-62
2024/01/17 12:31:02;;;;;;;0.00;0.00;;;-0.10;99.90;;;;;;4996861;28;19921;-61
2024/01/17 12:33:36;;;;;;;0.00;0.00;;;0.00;99.90;;;;;;4996711;28;20080;-61
2024/01/17 12:36:04;;;;;;;1.92;1.15;;;0.00;99.90;;;;;;4998238;28;20172;-61
2024/01/17 12:38:35;;;;;;;1.38;0.85;;;0.10;99.90;;;;;;5015535;28;20079;-60
2024/01/17 12:41:05;;;;;;;0.00;0.00;;;0.10;99.90;;;;;;4997980;28;20029;-62
2024/01/17 12:43:33;;;;;;;0.00;0.00;;;0.20;99.90;;;;;;4998923;28;20097;-60
2024/01/17 12:45:59;;;;;;;0.00;0.00;;;0.20;99.90;;;;;;4999157;28;20025;-60
2024/01/17 12:48:26;;;;;;;0.00;0.00;;;0.20;99.90;;;;;;4999797;28;20022;-60
2024/01/17 12:50:57;;;;;;;0.00;0.00;;;0.20;99.90;;;;;;4998883;28;20113;-61
2024/01/17 12:53:25;;;;;;;0.00;0.00;;;0.20;99.90;;;;;;4998794;28;20022;-60
2024/01/17 12:55:51;;;;;;;0.00;0.00;;;0.30;99.90;;;;;;4996058;28;20033;-60
2024/01/17 12:58:17;;;;;;;0.00;0.00;;;0.20;99.90;;;;;;4997681;28;20125;-61
2024/01/17 13:00:43;;;;;;;0.00;0.00;;;0.20;99.90;;;;;;4995098;28;20061;-63
2024/01/17 13:03:11;;;;;;;0.80;0.75;;;0.30;99.90;;;;;;4998493;28;20564;-63
2024/01/17 13:05:41;;;;;;;0.20;0.20;;;0.40;99.90;;;;;;4999785;28;20040;-64
2024/01/17 13:08:14;;;;;;;0.00;0.00;;;0.40;99.90;;;;;;4996328;28;20022;-64
2024/01/17 13:10:43;;;;;;;0.00;0.00;;;0.50;99.90;;;;;;4997666;28;20060;-63